sensor_id;sensor_type;location;lat;lon;timestamp;temperature;humidity
6379;DHT22;3222;48.858;10.128;2022-09-29T00:01:09;7.70;99.90
6379;DHT22;3222;48.858;10.128;2022-09-29T00:03:36;7.70;99.90
6379;DHT22;3222;48.858;10.128;2022-09-29T00:06:02;7.70;99.90
6379;DHT22;3222;48.858;10.128;2022-09-29T00:08:29;7.70;99.90
6379;DHT22;3222;48.858;10.128;2022-09-29T00:10:55;7.70;99.90
6379;DHT22;3222;48.858;10.128;2022-09-29T00:13:21;7.60;99.90
6379;DHT22;3222;48.858;10.128;2022-09-29T00:15:57;7.70;99.90
6379;DHT22;3222;48.858;10.128;2022-09-29T00:18:23;7.70;99.90
6379;DHT22;3222;48.858;10.128;2022-09-29T00:21:16;7.70;99.90
6379;DHT22;3222;48.858;10.128;2022-09-29T00:23:44;7.70;99.90
6379;DHT22;3222;48.858;10.128;2022-09-29T00:26:16;7.60;99.90
6379;DHT22;3222;48.858;10.128;2022-09-29T00:28:49;7.60;99.90
6379;DHT22;3222;48.858;10.128;2022-09-29T00:31:18;7.60;99.90
6379;DHT22;3222;48.858;10.128;2022-09-29T00:33:44;7.60;99.90
6379;DHT22;3222;48.858;10.128;2022-09-29T00:36:12;7.60;99.90
6379;DHT22;3222;48.858;10.128;2022-09-29T00:38:38;7.60;99.90
6379;DHT22;3222;48.858;10.128;2022-09-29T00:41:05;7.60;99.90
6379;DHT22;3222;48.858;10.128;2022-09-29T00:44:03;7.60;99.90
6379;DHT22;3222;48.858;10.128;2022-09-29T00:46:37;7.60;99.90
6379;DHT22;3222;48.858;10.128;2022-09-29T00:51:52;7.50;99.90
6379;DHT22;3222;48.858;10.128;2022-09-29T00:54:20;7.50;99.90
6379;DHT22;3222;48.858;10.128;2022-09-29T00:56:48;7.50;99.90
6379;DHT22;3222;48.858;10.128;2022-09-29T00:59:20;7.50;99.90
6379;DHT22;3222;48.858;10.128;2022-09-29T01:01:48;7.40;99.90
6379;DHT22;3222;48.858;10.128;2022-09-29T01:04:18;7.50;99.90
6379;DHT22;3222;48.858;10.128;2022-09-29T01:07:02;7.50;99.90
6379;DHT22;3222;48.858;10.128;2022-09-29T01:09:31;7.50;99.90
6379;DHT22;3222;48.858;10.128;2022-09-29T01:11:58;7.50;99.90
6379;DHT22;3222;48.858;10.128;2022-09-29T01:14:26;7.50;99.90
6379;DHT22;3222;48.858;10.128;2022-09-29T01:16:52;7.50;99.90
6379;DHT22;3222;48.858;10.128;2022-09-29T01:22:16;7.50;99.90
6379;DHT22;3222;48.858;10.128;2022-09-29T01:41:09;7.50;99.90
6379;DHT22;3222;48.858;10.128;2022-09-29T01:46:32;7.50;99.90
6379;DHT22;3222;48.858;10.128;2022-09-29T01:49:02;7.50;99.90
6379;DHT22;3222;48.858;10.128;2022-09-29T01:51:35;7.60;99.90
6379;DHT22;3222;48.858;10.128;2022-09-29T01:54:07;7.50;99.90
6379;DHT22;3222;48.858;10.128;2022-09-29T01:56:37;7.60;99.90
6379;DHT22;3222;48.858;10.128;2022-09-29T02:02:01;7.60;99.90
6379;DHT22;3222;48.858;10.128;2022-09-29T02:04:33;7.60;99.90
6379;DHT22;3222;48.858;10.128;2022-09-29T02:07:23;7.60;99.90
6379;DHT22;3222;48.858;10.128;2022-09-29T02:10:00;7.50;99.90
6379;DHT22;3222;48.858;10.128;2022-09-29T02:12:29;7.60;99.90
6379;DHT22;3222;48.858;10.128;2022-09-29T02:14:57;7.60;99.90
6379;DHT22;3222;48.858;10.128;2022-09-29T02:17:33;7.60;99.90
6379;DHT22;3222;48.858;10.128;2022-09-29T02:20:00;7.60;99.90
6379;DHT22;3222;48.858;10.128;2022-09-29T02:22:26;7.60;99.90
6379;DHT22;3222;48.858;10.128;2022-09-29T02:24:54;7.70;99.90
6379;DHT22;3222;48.858;10.128;2022-09-29T02:27:24;7.60;99.90
6379;DHT22;3222;48.858;10.128;2022-09-29T02:29:50;7.70;99.90
6379;DHT22;3222;48.858;10.128;2022-09-29T02:32:16;7.70;99.90
6379;DHT22;3222;48.858;10.128;2022-09-29T02:34:44;7.60;99.90
6379;DHT22;3222;48.858;10.128;2022-09-29T02:49:07;7.60;99.90
6379;DHT22;3222;48.858;10.128;2022-09-29T02:51:43;7.60;99.90
6379;DHT22;3222;48.858;10.128;2022-09-29T02:59:41;7.60;99.90
6379;DHT22;3222;48.858;10.128;2022-09-29T03:02:07;7.70;99.90
6379;DHT22;3222;48.858;10.128;2022-09-29T03:04:33;7.60;99.90
6379;DHT22;3222;48.858;10.128;2022-09-29T03:06:58;7.60;99.90
6379;DHT22;3222;48.858;10.128;2022-09-29T03:09:24;7.70;99.90
6379;DHT22;3222;48.858;10.128;2022-09-29T03:11:50;7.60;99.90
6379;DHT22;3222;48.858;10.128;2022-09-29T03:14:15;7.70;99.90
6379;DHT22;3222;48.858;10.128;2022-09-29T03:16:41;7.60;99.90
6379;DHT22;3222;48.858;10.128;2022-09-29T03:19:08;7.70;99.90
6379;DHT22;3222;48.858;10.128;2022-09-29T03:21:34;7.70;99.90
6379;DHT22;3222;48.858;10.128;2022-09-29T03:24:00;7.70;99.90
6379;DHT22;3222;48.858;10.128;2022-09-29T03:26:25;7.70;99.90
6379;DHT22;3222;48.858;10.128;2022-09-29T03:28:52;7.70;99.90
6379;DHT22;3222;48.858;10.128;2022-09-29T03:31:18;7.80;99.90
6379;DHT22;3222;48.858;10.128;2022-09-29T03:33:44;7.70;99.90
6379;DHT22;3222;48.858;10.128;2022-09-29T03:36:10;7.80;99.90
6379;DHT22;3222;48.858;10.128;2022-09-29T03:38:38;7.70;99.90
6379;DHT22;3222;48.858;10.128;2022-09-29T03:41:05;7.70;99.90
6379;DHT22;3222;48.858;10.128;2022-09-29T03:43:31;7.70;99.90
6379;DHT22;3222;48.858;10.128;2022-09-29T03:45:57;7.70;99.90
6379;DHT22;3222;48.858;10.128;2022-09-29T03:48:23;7.70;99.90
6379;DHT22;3222;48.858;10.128;2022-09-29T03:50:50;7.70;99.90
6379;DHT22;3222;48.858;10.128;2022-09-29T03:53:17;7.60;99.90
6379;DHT22;3222;48.858;10.128;2022-09-29T03:55:47;7.60;99.90
6379;DHT22;3222;48.858;10.128;2022-09-29T03:58:13;7.60;99.90
6379;DHT22;3222;48.858;10.128;2022-09-29T04:00:39;7.70;99.90
6379;DHT22;3222;48.858;10.128;2022-09-29T04:03:05;7.60;99.90
6379;DHT22;3222;48.858;10.128;2022-09-29T04:05:31;7.60;99.90
6379;DHT22;3222;48.858;10.128;2022-09-29T04:08:07;7.60;99.90
6379;DHT22;3222;48.858;10.128;2022-09-29T04:10:34;7.60;99.90
6379;DHT22;3222;48.858;10.128;2022-09-29T04:13:00;7.60;99.90
6379;DHT22;3222;48.858;10.128;2022-09-29T04:15:26;7.60;99.90
6379;DHT22;3222;48.858;10.128;2022-09-29T04:17:51;7.70;99.90
6379;DHT22;3222;48.858;10.128;2022-09-29T04:20:17;7.70;99.90
6379;DHT22;3222;48.858;10.128;2022-09-29T04:22:43;7.60;99.90
6379;DHT22;3222;48.858;10.128;2022-09-29T04:25:09;7.60;99.90
6379;DHT22;3222;48.858;10.128;2022-09-29T04:27:34;7.60;99.90
6379;DHT22;3222;48.858;10.128;2022-09-29T04:30:00;7.60;99.90
6379;DHT22;3222;48.858;10.128;2022-09-29T04:32:26;7.60;99.90
6379;DHT22;3222;48.858;10.128;2022-09-29T04:34:51;7.50;99.90
6379;DHT22;3222;48.858;10.128;2022-09-29T04:37:17;7.50;99.90
6379;DHT22;3222;48.858;10.128;2022-09-29T04:39:43;7.50;99.90
6379;DHT22;3222;48.858;10.128;2022-09-29T04:42:09;7.50;99.90
6379;DHT22;3222;48.858;10.128;2022-09-29T04:44:34;7.50;99.90
6379;DHT22;3222;48.858;10.128;2022-09-29T04:47:00;7.40;99.90
6379;DHT22;3222;48.858;10.128;2022-09-29T04:49:26;7.50;99.90
6379;DHT22;3222;48.858;10.128;2022-09-29T04:51:51;7.40;99.90
6379;DHT22;3222;48.858;10.128;2022-09-29T04:54:17;7.50;99.90
6379;DHT22;3222;48.858;10.128;2022-09-29T04:56:46;7.50;99.90
6379;DHT22;3222;48.858;10.128;2022-09-29T04:59:12;7.40;99.90
6379;DHT22;3222;48.858;10.128;2022-09-29T05:01:37;7.40;99.90
6379;DHT22;3222;48.858;10.128;2022-09-29T05:04:03;7.40;99.90
6379;DHT22;3222;48.858;10.128;2022-09-29T05:06:29;7.40;99.90
6379;DHT22;3222;48.858;10.128;2022-09-29T05:08:54;7.40;99.90
6379;DHT22;3222;48.858;10.128;2022-09-29T05:11:20;7.40;99.90
6379;DHT22;3222;48.858;10.128;2022-09-29T05:13:48;7.40;99.90
6379;DHT22;3222;48.858;10.128;2022-09-29T05:16:15;7.40;99.90
6379;DHT22;3222;48.858;10.128;2022-09-29T05:18:41;7.40;99.90
6379;DHT22;3222;48.858;10.128;2022-09-29T05:21:08;7.40;99.90
6379;DHT22;3222;48.858;10.128;2022-09-29T05:23:34;7.40;99.90
6379;DHT22;3222;48.858;10.128;2022-09-29T05:26:01;7.50;99.90
6379;DHT22;3222;48.858;10.128;2022-09-29T05:28:27;7.40;99.90
6379;DHT22;3222;48.858;10.128;2022-09-29T05:30:53;7.40;99.90
6379;DHT22;3222;48.858;10.128;2022-09-29T05:33:19;7.40;99.90
6379;DHT22;3222;48.858;10.128;2022-09-29T05:35:44;7.50;99.90
6379;DHT22;3222;48.858;10.128;2022-09-29T05:38:10;7.50;99.90
6379;DHT22;3222;48.858;10.128;2022-09-29T05:40:35;7.50;99.90
6379;DHT22;3222;48.858;10.128;2022-09-29T05:43:02;7.60;99.90
6379;DHT22;3222;48.858;10.128;2022-09-29T05:45:27;7.70;99.90
6379;DHT22;3222;48.858;10.128;2022-09-29T05:47:53;7.80;99.90
6379;DHT22;3222;48.858;10.128;2022-09-29T05:50:19;7.70;99.90
6379;DHT22;3222;48.858;10.128;2022-09-29T05:52:45;7.60;99.90
6379;DHT22;3222;48.858;10.128;2022-09-29T05:55:15;7.50;99.90
6379;DHT22;3222;48.858;10.128;2022-09-29T05:57:41;7.50;99.90
6379;DHT22;3222;48.858;10.128;2022-09-29T06:00:07;7.60;99.90
6379;DHT22;3222;48.858;10.128;2022-09-29T06:02:39;7.50;99.90
6379;DHT22;3222;48.858;10.128;2022-09-29T06:05:05;7.50;99.90
6379;DHT22;3222;48.858;10.128;2022-09-29T06:07:30;7.40;99.90
6379;DHT22;3222;48.858;10.128;2022-09-29T06:09:56;7.50;99.90
6379;DHT22;3222;48.858;10.128;2022-09-29T06:12:22;7.40;99.90
6379;DHT22;3222;48.858;10.128;2022-09-29T06:14:47;7.40;99.90
6379;DHT22;3222;48.858;10.128;2022-09-29T06:17:13;7.40;99.90
6379;DHT22;3222;48.858;10.128;2022-09-29T06:19:39;7.50;99.90
6379;DHT22;3222;48.858;10.128;2022-09-29T06:22:04;7.40;99.90
6379;DHT22;3222;48.858;10.128;2022-09-29T06:24:30;7.50;99.90
6379;DHT22;3222;48.858;10.128;2022-09-29T06:26:56;7.50;99.90
6379;DHT22;3222;48.858;10.128;2022-09-29T06:29:21;7.70;99.90
6379;DHT22;3222;48.858;10.128;2022-09-29T06:31:47;7.60;99.90
6379;DHT22;3222;48.858;10.128;2022-09-29T06:34:13;7.60;99.90
6379;DHT22;3222;48.858;10.128;2022-09-29T06:36:40;7.60;99.90
6379;DHT22;3222;48.858;10.128;2022-09-29T06:39:25;7.50;99.90
6379;DHT22;3222;48.858;10.128;2022-09-29T06:41:51;7.50;99.90
6379;DHT22;3222;48.858;10.128;2022-09-29T06:44:25;7.50;99.90
6379;DHT22;3222;48.858;10.128;2022-09-29T06:46:52;7.50;99.90
6379;DHT22;3222;48.858;10.128;2022-09-29T06:49:18;7.50;99.90
6379;DHT22;3222;48.858;10.128;2022-09-29T06:51:45;7.50;99.90
6379;DHT22;3222;48.858;10.128;2022-09-29T06:54:12;7.50;99.90
6379;DHT22;3222;48.858;10.128;2022-09-29T06:56:38;7.50;99.90
6379;DHT22;3222;48.858;10.128;2022-09-29T06:59:04;7.60;99.90
6379;DHT22;3222;48.858;10.128;2022-09-29T07:01:30;7.60;99.90
6379;DHT22;3222;48.858;10.128;2022-09-29T07:03:55;7.70;99.90
6379;DHT22;3222;48.858;10.128;2022-09-29T07:06:21;7.80;99.90
6379;DHT22;3222;48.858;10.128;2022-09-29T07:08:47;7.80;99.90
6379;DHT22;3222;48.858;10.128;2022-09-29T07:11:12;7.70;99.90
6379;DHT22;3222;48.858;10.128;2022-09-29T07:13:39;7.70;99.90
6379;DHT22;3222;48.858;10.128;2022-09-29T07:16:05;7.70;99.90
6379;DHT22;3222;48.858;10.128;2022-09-29T07:18:32;7.70;99.90
6379;DHT22;3222;48.858;10.128;2022-09-29T07:21:00;7.70;99.90
6379;DHT22;3222;48.858;10.128;2022-09-29T07:23:25;7.80;99.90
6379;DHT22;3222;48.858;10.128;2022-09-29T07:25:52;7.90;99.90
6379;DHT22;3222;48.858;10.128;2022-09-29T07:28:18;7.90;99.90
6379;DHT22;3222;48.858;10.128;2022-09-29T07:30:43;7.90;99.90
6379;DHT22;3222;48.858;10.128;2022-09-29T07:33:09;8.10;99.90
6379;DHT22;3222;48.858;10.128;2022-09-29T07:35:35;8.10;99.90
6379;DHT22;3222;48.858;10.128;2022-09-29T07:38:00;8.10;99.90
6379;DHT22;3222;48.858;10.128;2022-09-29T07:40:26;8.20;99.90
6379;DHT22;3222;48.858;10.128;2022-09-29T07:42:52;8.30;99.90
6379;DHT22;3222;48.858;10.128;2022-09-29T07:45:19;8.30;99.90
6379;DHT22;3222;48.858;10.128;2022-09-29T07:47:45;8.30;99.90
6379;DHT22;3222;48.858;10.128;2022-09-29T07:50:11;8.30;99.90
6379;DHT22;3222;48.858;10.128;2022-09-29T07:52:37;8.20;99.90
6379;DHT22;3222;48.858;10.128;2022-09-29T07:55:04;8.20;99.90
6379;DHT22;3222;48.858;10.128;2022-09-29T07:57:30;8.20;99.90
6379;DHT22;3222;48.858;10.128;2022-09-29T07:59:55;8.20;99.90
6379;DHT22;3222;48.858;10.128;2022-09-29T08:02:23;8.20;99.90
6379;DHT22;3222;48.858;10.128;2022-09-29T08:04:49;8.20;99.90
6379;DHT22;3222;48.858;10.128;2022-09-29T08:07:15;8.20;99.90
6379;DHT22;3222;48.858;10.128;2022-09-29T08:09:41;8.30;99.90
6379;DHT22;3222;48.858;10.128;2022-09-29T08:12:07;8.40;99.90
6379;DHT22;3222;48.858;10.128;2022-09-29T08:14:33;8.30;99.90
6379;DHT22;3222;48.858;10.128;2022-09-29T08:16:59;8.30;99.90
6379;DHT22;3222;48.858;10.128;2022-09-29T08:19:25;8.50;99.90
6379;DHT22;3222;48.858;10.128;2022-09-29T08:21:52;8.50;99.90
6379;DHT22;3222;48.858;10.128;2022-09-29T08:24:18;8.70;99.90
6379;DHT22;3222;48.858;10.128;2022-09-29T08:26:43;8.80;99.90
6379;DHT22;3222;48.858;10.128;2022-09-29T08:29:10;8.80;99.90
6379;DHT22;3222;48.858;10.128;2022-09-29T08:31:36;8.70;99.90
6379;DHT22;3222;48.858;10.128;2022-09-29T08:34:05;8.70;99.90
6379;DHT22;3222;48.858;10.128;2022-09-29T08:36:31;8.70;99.90
6379;DHT22;3222;48.858;10.128;2022-09-29T08:38:56;8.70;99.90
6379;DHT22;3222;48.858;10.128;2022-09-29T08:44:41;8.60;99.90
6379;DHT22;3222;48.858;10.128;2022-09-29T08:47:28;8.60;99.90
6379;DHT22;3222;48.858;10.128;2022-09-29T08:50:00;8.70;99.90
6379;DHT22;3222;48.858;10.128;2022-09-29T08:52:28;8.70;99.90
6379;DHT22;3222;48.858;10.128;2022-09-29T08:55:09;8.70;99.90
6379;DHT22;3222;48.858;10.128;2022-09-29T08:57:38;8.70;99.90
6379;DHT22;3222;48.858;10.128;2022-09-29T09:00:05;8.70;99.90
6379;DHT22;3222;48.858;10.128;2022-09-29T09:13:31;8.80;99.90
6379;DHT22;3222;48.858;10.128;2022-09-29T09:21:51;9.00;99.90
6379;DHT22;3222;48.858;10.128;2022-09-29T09:24:40;9.10;99.90
6379;DHT22;3222;48.858;10.128;2022-09-29T09:27:14;9.20;99.90
6379;DHT22;3222;48.858;10.128;2022-09-29T09:29:46;9.40;99.90
6379;DHT22;3222;48.858;10.128;2022-09-29T09:32:21;9.60;99.90
6379;DHT22;3222;48.858;10.128;2022-09-29T09:34:57;9.70;99.90
6379;DHT22;3222;48.858;10.128;2022-09-29T09:37:31;9.80;99.90
6379;DHT22;3222;48.858;10.128;2022-09-29T09:40:10;9.70;99.90
6379;DHT22;3222;48.858;10.128;2022-09-29T09:42:42;9.70;99.90
6379;DHT22;3222;48.858;10.128;2022-09-29T09:45:32;9.80;99.90
6379;DHT22;3222;48.858;10.128;2022-09-29T09:50:39;9.80;99.90
6379;DHT22;3222;48.858;10.128;2022-09-29T09:53:28;9.70;99.90
6379;DHT22;3222;48.858;10.128;2022-09-29T09:56:23;9.80;99.90
6379;DHT22;3222;48.858;10.128;2022-09-29T09:59:07;9.80;99.90
6379;DHT22;3222;48.858;10.128;2022-09-29T10:01:38;9.80;99.90
6379;DHT22;3222;48.858;10.128;2022-09-29T10:04:03;9.90;99.90
6379;DHT22;3222;48.858;10.128;2022-09-29T10:06:30;9.80;99.90
6379;DHT22;3222;48.858;10.128;2022-09-29T10:08:55;9.80;99.90
6379;DHT22;3222;48.858;10.128;2022-09-29T10:13:56;9.90;99.90
6379;DHT22;3222;48.858;10.128;2022-09-29T10:16:36;10.00;99.90
6379;DHT22;3222;48.858;10.128;2022-09-29T10:19:05;9.90;99.90
6379;DHT22;3222;48.858;10.128;2022-09-29T10:23:58;9.90;99.90
6379;DHT22;3222;48.858;10.128;2022-09-29T10:26:39;9.80;99.90
6379;DHT22;3222;48.858;10.128;2022-09-29T10:29:22;10.00;99.90
6379;DHT22;3222;48.858;10.128;2022-09-29T10:32:03;10.00;99.90
6379;DHT22;3222;48.858;10.128;2022-09-29T10:34:32;10.00;99.90
6379;DHT22;3222;48.858;10.128;2022-09-29T10:39:40;10.10;99.90
6379;DHT22;3222;48.858;10.128;2022-09-29T10:42:21;10.10;99.90
6379;DHT22;3222;48.858;10.128;2022-09-29T10:44:53;10.10;99.90
6379;DHT22;3222;48.858;10.128;2022-09-29T10:47:25;10.10;99.90
6379;DHT22;3222;48.858;10.128;2022-09-29T10:52:46;10.20;99.90
6379;DHT22;3222;48.858;10.128;2022-09-29T10:55:25;10.10;99.90
6379;DHT22;3222;48.858;10.128;2022-09-29T10:57:52;10.10;99.90
6379;DHT22;3222;48.858;10.128;2022-09-29T11:00:35;10.20;99.90
6379;DHT22;3222;48.858;10.128;2022-09-29T11:03:21;10.20;99.90
6379;DHT22;3222;48.858;10.128;2022-09-29T11:06:08;10.30;99.90
6379;DHT22;3222;48.858;10.128;2022-09-29T11:09:02;10.30;99.90
6379;DHT22;3222;48.858;10.128;2022-09-29T11:11:35;10.30;99.90
6379;DHT22;3222;48.858;10.128;2022-09-29T11:14:02;10.30;99.90
6379;DHT22;3222;48.858;10.128;2022-09-29T11:16:32;10.30;99.90
6379;DHT22;3222;48.858;10.128;2022-09-29T11:19:10;10.20;99.90
6379;DHT22;3222;48.858;10.128;2022-09-29T11:24:46;10.30;99.90
6379;DHT22;3222;48.858;10.128;2022-09-29T11:30:20;10.40;99.90
6379;DHT22;3222;48.858;10.128;2022-09-29T11:33:53;10.40;99.90
6379;DHT22;3222;48.858;10.128;2022-09-29T11:38:51;10.30;99.90
6379;DHT22;3222;48.858;10.128;2022-09-29T11:41:48;10.30;99.90
6379;DHT22;3222;48.858;10.128;2022-09-29T11:52:27;10.30;99.90
6379;DHT22;3222;48.858;10.128;2022-09-29T11:55:15;10.20;99.90
6379;DHT22;3222;48.858;10.128;2022-09-29T12:01:05;10.40;99.90
6379;DHT22;3222;48.858;10.128;2022-09-29T12:03:59;10.40;99.90
6379;DHT22;3222;48.858;10.128;2022-09-29T12:11:29;10.50;99.90
6379;DHT22;3222;48.858;10.128;2022-09-29T12:16:49;10.40;99.90
6379;DHT22;3222;48.858;10.128;2022-09-29T12:19:19;10.40;99.90
6379;DHT22;3222;48.858;10.128;2022-09-29T12:21:51;10.60;99.90
6379;DHT22;3222;48.858;10.128;2022-09-29T12:26:50;10.60;99.90
6379;DHT22;3222;48.858;10.128;2022-09-29T12:31:56;10.80;99.90
6379;DHT22;3222;48.858;10.128;2022-09-29T12:35:03;10.80;99.90
6379;DHT22;3222;48.858;10.128;2022-09-29T12:37:40;10.80;99.90
6379;DHT22;3222;48.858;10.128;2022-09-29T12:40:34;10.60;99.90
6379;DHT22;3222;48.858;10.128;2022-09-29T12:43:13;10.60;99.90
6379;DHT22;3222;48.858;10.128;2022-09-29T12:48:41;10.60;99.90
6379;DHT22;3222;48.858;10.128;2022-09-29T12:51:31;10.60;99.90
6379;DHT22;3222;48.858;10.128;2022-09-29T12:56:38;10.50;99.90
6379;DHT22;3222;48.858;10.128;2022-09-29T12:59:06;10.50;99.90
6379;DHT22;3222;48.858;10.128;2022-09-29T13:01:36;10.60;99.90
6379;DHT22;3222;48.858;10.128;2022-09-29T13:04:28;10.60;99.90
6379;DHT22;3222;48.858;10.128;2022-09-29T13:28:42;11.00;99.90
6379;DHT22;3222;48.858;10.128;2022-09-29T13:31:14;10.80;99.90
6379;DHT22;3222;48.858;10.128;2022-09-29T13:33:46;10.80;99.90
6379;DHT22;3222;48.858;10.128;2022-09-29T13:36:21;10.70;99.90
6379;DHT22;3222;48.858;10.128;2022-09-29T13:38:53;10.70;99.90
6379;DHT22;3222;48.858;10.128;2022-09-29T13:46:36;10.90;99.90
6379;DHT22;3222;48.858;10.128;2022-09-29T13:49:10;11.00;99.90
6379;DHT22;3222;48.858;10.128;2022-09-29T13:59:19;10.90;99.90
6379;DHT22;3222;48.858;10.128;2022-09-29T14:01:45;11.00;99.90
6379;DHT22;3222;48.858;10.128;2022-09-29T14:04:41;10.90;99.90
6379;DHT22;3222;48.858;10.128;2022-09-29T14:07:11;10.90;99.90
6379;DHT22;3222;48.858;10.128;2022-09-29T14:09:41;10.90;99.90
6379;DHT22;3222;48.858;10.128;2022-09-29T14:12:17;11.00;99.90
6379;DHT22;3222;48.858;10.128;2022-09-29T14:14:55;11.00;99.90
6379;DHT22;3222;48.858;10.128;2022-09-29T14:17:35;11.00;99.90
6379;DHT22;3222;48.858;10.128;2022-09-29T14:27:45;11.00;99.90
6379;DHT22;3222;48.858;10.128;2022-09-29T14:30:33;11.00;99.90
6379;DHT22;3222;48.858;10.128;2022-09-29T14:38:43;11.00;99.90
6379;DHT22;3222;48.858;10.128;2022-09-29T14:41:23;11.00;99.90
6379;DHT22;3222;48.858;10.128;2022-09-29T14:44:10;10.90;99.90
6379;DHT22;3222;48.858;10.128;2022-09-29T14:47:04;11.00;99.90
6379;DHT22;3222;48.858;10.128;2022-09-29T14:50:00;11.10;99.90
6379;DHT22;3222;48.858;10.128;2022-09-29T14:55:47;11.30;99.90
6379;DHT22;3222;48.858;10.128;2022-09-29T15:03:52;11.20;99.90
6379;DHT22;3222;48.858;10.128;2022-09-29T15:06:21;11.10;99.90
6379;DHT22;3222;48.858;10.128;2022-09-29T15:09:17;11.00;99.90
6379;DHT22;3222;48.858;10.128;2022-09-29T15:11:53;11.00;99.90
6379;DHT22;3222;48.858;10.128;2022-09-29T15:22:01;10.80;99.90
6379;DHT22;3222;48.858;10.128;2022-09-29T15:27:13;10.80;99.90
6379;DHT22;3222;48.858;10.128;2022-09-29T15:29:40;10.70;99.90
6379;DHT22;3222;48.858;10.128;2022-09-29T15:32:30;10.70;99.90
6379;DHT22;3222;48.858;10.128;2022-09-29T15:35:04;10.70;99.90
6379;DHT22;3222;48.858;10.128;2022-09-29T15:37:54;10.60;99.90
6379;DHT22;3222;48.858;10.128;2022-09-29T15:40:22;10.60;99.90
6379;DHT22;3222;48.858;10.128;2022-09-29T15:42:49;10.60;99.90
6379;DHT22;3222;48.858;10.128;2022-09-29T15:45:20;10.60;99.90
6379;DHT22;3222;48.858;10.128;2022-09-29T15:47:48;10.60;99.90
6379;DHT22;3222;48.858;10.128;2022-09-29T15:50:24;10.70;99.90
6379;DHT22;3222;48.858;10.128;2022-09-29T15:52:50;10.60;99.90
6379;DHT22;3222;48.858;10.128;2022-09-29T15:55:22;10.60;99.90
6379;DHT22;3222;48.858;10.128;2022-09-29T15:57:49;10.60;99.90
6379;DHT22;3222;48.858;10.128;2022-09-29T16:05:20;10.60;99.90
6379;DHT22;3222;48.858;10.128;2022-09-29T16:10:18;10.60;99.90
6379;DHT22;3222;48.858;10.128;2022-09-29T16:13:13;10.60;99.90
6379;DHT22;3222;48.858;10.128;2022-09-29T16:15:46;10.60;99.90
6379;DHT22;3222;48.858;10.128;2022-09-29T16:18:23;10.70;99.90
6379;DHT22;3222;48.858;10.128;2022-09-29T16:20:51;10.70;99.90
6379;DHT22;3222;48.858;10.128;2022-09-29T16:26:10;10.70;99.90
6379;DHT22;3222;48.858;10.128;2022-09-29T16:28:40;10.70;99.90
6379;DHT22;3222;48.858;10.128;2022-09-29T16:31:22;10.60;99.90
6379;DHT22;3222;48.858;10.128;2022-09-29T16:33:53;10.70;99.90
6379;DHT22;3222;48.858;10.128;2022-09-29T16:36:30;10.60;99.90
6379;DHT22;3222;48.858;10.128;2022-09-29T16:39:03;10.70;99.90
6379;DHT22;3222;48.858;10.128;2022-09-29T16:41:37;10.60;99.90
6379;DHT22;3222;48.858;10.128;2022-09-29T16:47:02;10.80;99.90
6379;DHT22;3222;48.858;10.128;2022-09-29T16:52:16;10.80;99.90
6379;DHT22;3222;48.858;10.128;2022-09-29T16:54:45;10.90;99.90
6379;DHT22;3222;48.858;10.128;2022-09-29T16:57:23;10.90;99.90
6379;DHT22;3222;48.858;10.128;2022-09-29T16:59:58;10.90;99.90
6379;DHT22;3222;48.858;10.128;2022-09-29T17:02:25;10.90;99.90
6379;DHT22;3222;48.858;10.128;2022-09-29T17:04:52;10.90;99.90
6379;DHT22;3222;48.858;10.128;2022-09-29T17:07:22;10.80;99.90
6379;DHT22;3222;48.858;10.128;2022-09-29T17:09:58;10.80;99.90
6379;DHT22;3222;48.858;10.128;2022-09-29T17:12:26;10.70;99.90
6379;DHT22;3222;48.858;10.128;2022-09-29T17:14:52;10.70;99.90
6379;DHT22;3222;48.858;10.128;2022-09-29T17:17:24;10.70;99.90
6379;DHT22;3222;48.858;10.128;2022-09-29T17:19:51;10.70;99.90
6379;DHT22;3222;48.858;10.128;2022-09-29T17:22:26;10.70;99.90
6379;DHT22;3222;48.858;10.128;2022-09-29T17:24:52;10.70;99.90
6379;DHT22;3222;48.858;10.128;2022-09-29T17:27:19;10.80;99.90
6379;DHT22;3222;48.858;10.128;2022-09-29T17:30:04;10.80;99.90
6379;DHT22;3222;48.858;10.128;2022-09-29T17:32:30;10.80;99.90
6379;DHT22;3222;48.858;10.128;2022-09-29T17:34:56;10.70;99.90
6379;DHT22;3222;48.858;10.128;2022-09-29T17:37:22;10.60;99.90
6379;DHT22;3222;48.858;10.128;2022-09-29T17:39:48;10.70;99.90
6379;DHT22;3222;48.858;10.128;2022-09-29T17:42:13;10.70;99.90
6379;DHT22;3222;48.858;10.128;2022-09-29T17:44:39;10.70;99.90
6379;DHT22;3222;48.858;10.128;2022-09-29T17:47:13;10.70;99.90
6379;DHT22;3222;48.858;10.128;2022-09-29T17:49:41;10.70;99.90
6379;DHT22;3222;48.858;10.128;2022-09-29T17:52:07;10.60;99.90
6379;DHT22;3222;48.858;10.128;2022-09-29T17:54:35;10.70;99.90
6379;DHT22;3222;48.858;10.128;2022-09-29T17:57:02;10.70;99.90
6379;DHT22;3222;48.858;10.128;2022-09-29T17:59:28;10.70;99.90
6379;DHT22;3222;48.858;10.128;2022-09-29T18:01:56;10.70;99.90
6379;DHT22;3222;48.858;10.128;2022-09-29T18:04:22;10.70;99.90
6379;DHT22;3222;48.858;10.128;2022-09-29T18:06:49;10.60;99.90
6379;DHT22;3222;48.858;10.128;2022-09-29T18:09:16;10.60;99.90
6379;DHT22;3222;48.858;10.128;2022-09-29T18:11:43;10.60;99.90
6379;DHT22;3222;48.858;10.128;2022-09-29T18:14:09;10.60;99.90
6379;DHT22;3222;48.858;10.128;2022-09-29T18:16:34;10.70;99.90
6379;DHT22;3222;48.858;10.128;2022-09-29T18:19:00;10.70;99.90
6379;DHT22;3222;48.858;10.128;2022-09-29T18:21:26;10.70;99.90
6379;DHT22;3222;48.858;10.128;2022-09-29T18:23:52;10.70;99.90
6379;DHT22;3222;48.858;10.128;2022-09-29T18:26:17;10.70;99.90
6379;DHT22;3222;48.858;10.128;2022-09-29T18:28:43;10.70;99.90
6379;DHT22;3222;48.858;10.128;2022-09-29T18:31:26;10.70;99.90
6379;DHT22;3222;48.858;10.128;2022-09-29T18:33:53;10.50;99.90
6379;DHT22;3222;48.858;10.128;2022-09-29T18:36:19;10.50;99.90
6379;DHT22;3222;48.858;10.128;2022-09-29T18:38:45;10.40;99.90
6379;DHT22;3222;48.858;10.128;2022-09-29T18:41:16;10.40;99.90
6379;DHT22;3222;48.858;10.128;2022-09-29T18:43:45;10.30;99.90
6379;DHT22;3222;48.858;10.128;2022-09-29T18:46:11;10.40;99.90
6379;DHT22;3222;48.858;10.128;2022-09-29T18:48:38;10.30;99.90
6379;DHT22;3222;48.858;10.128;2022-09-29T18:51:04;10.30;99.90
6379;DHT22;3222;48.858;10.128;2022-09-29T18:53:30;10.30;99.90
6379;DHT22;3222;48.858;10.128;2022-09-29T18:56:04;10.30;99.90
6379;DHT22;3222;48.858;10.128;2022-09-29T18:58:30;10.20;99.90
6379;DHT22;3222;48.858;10.128;2022-09-29T19:00:56;10.30;99.90
6379;DHT22;3222;48.858;10.128;2022-09-29T19:03:26;10.30;99.90
6379;DHT22;3222;48.858;10.128;2022-09-29T19:05:54;10.30;99.90
6379;DHT22;3222;48.858;10.128;2022-09-29T19:08:20;10.10;99.90
6379;DHT22;3222;48.858;10.128;2022-09-29T19:10:54;10.10;99.90
6379;DHT22;3222;48.858;10.128;2022-09-29T19:13:22;10.00;99.90
6379;DHT22;3222;48.858;10.128;2022-09-29T19:15:48;10.00;99.90
6379;DHT22;3222;48.858;10.128;2022-09-29T19:18:17;9.90;99.90
6379;DHT22;3222;48.858;10.128;2022-09-29T19:20:52;10.00;99.90
6379;DHT22;3222;48.858;10.128;2022-09-29T19:23:20;9.90;99.90
6379;DHT22;3222;48.858;10.128;2022-09-29T19:25:47;9.80;99.90
6379;DHT22;3222;48.858;10.128;2022-09-29T19:28:14;10.00;99.90
6379;DHT22;3222;48.858;10.128;2022-09-29T19:30:40;10.00;99.90
6379;DHT22;3222;48.858;10.128;2022-09-29T19:33:08;10.10;99.90
6379;DHT22;3222;48.858;10.128;2022-09-29T19:35:35;10.10;99.90